Aviation Digital Data Service (ADDS)

Output produced by METARs form (1343 UTC 22 July 2014)
found at http://www.aviationweather.gov/adds/metars/
 
METAR text: KCMI 221253Z 21005KT 5SM BR CLR 21/19 A3011 RMK AO2 SLP191 T02110189
Conditions at: KCMI (CHAMPAIGN/URBANA, IL, US) observed 1253 UTC 22 July 2014
Temperature: 21.1°C (70°F)
Dewpoint: 18.9°C (66°F) [RH = 87%]
Pressure (altimeter): 30.11 inches Hg (1019.7 mb)
[Sea-level pressure: 1019.1 mb]
Winds: from the SSW (210 degrees) at 6 MPH (5 knots; 2.6 m/s)
Visibility: 5 miles (8 km)
Ceiling: at least 12,000 feet AGL
Clouds: sky clear below 12,000 feet AGL
Weather: BR  (mist)

METAR text: KCMI 221153Z COR 19005KT 3SM CLR 19/18 A3011 RMK AO2 TWR VIS 4 SLP190 T01940178 10194 20178 51003
Conditions at: KCMI (CHAMPAIGN/URBANA, IL, US) observed 1153 UTC 22 July 2014
Temperature: 19.4°C (67°F)
Dewpoint: 17.8°C (64°F) [RH = 90%]
Pressure (altimeter): 30.11 inches Hg (1019.7 mb)
[Sea-level pressure: 1019.0 mb]
Winds: from the S (190 degrees) at 6 MPH (5 knots; 2.6 m/s)
Visibility: 3 miles (5 km)
Ceiling: at least 12,000 feet AGL
Clouds: sky clear below 12,000 feet AGL
Weather: no significant weather observed at this time

Forecast for: KCMI (CHAMPAIGN/URBANA, IL, US)
Text: KCMI 221139Z 2212/2312 20004KT 5SM BR SKC
Forecast period: 1200 to 1400 UTC 22 July 2014
Forecast type: FROM: standard forecast or significant change
Winds: from the SSW (200 degrees) at 5 MPH (4 knots; 2.1 m/s)
Visibility: 5 miles (8 km)
Clouds: clear skies
Weather: BR  (mist)
Text: TEMPO 2212/2213 2SM BR SKC
Forecast period: 1200 to 1300 UTC 22 July 2014
Forecast type: TEMPORARY: The following changes expected for less than half the time period
Visibility: 2.00 miles (3.22 km)
Clouds: clear skies
Weather: BR  (mist)
Text: FM221400 20012KT P6SM SCT050
Forecast period: 1400 UTC 22 July 2014 to 0300 UTC 23 July 2014
Forecast type: FROM: standard forecast or significant change
Winds: from the SSW (200 degrees) at 14 MPH (12 knots; 6.2 m/s)
Visibility: 6 or more miles (10+ km)
Clouds: scattered clouds at 5000 feet AGL
Weather: no significant weather forecast for this period
Text: FM230300 21005KT P6SM VCTS SCT060CB
Forecast period: 0300 to 0900 UTC 23 July 2014
Forecast type: FROM: standard forecast or significant change
Winds: from the SSW (210 degrees) at 6 MPH (5 knots; 2.6 m/s)
Visibility: 6 or more miles (10+ km)
Clouds: scattered clouds at 6000 feet AGL
Weather: VCTS  (thunderstorm in vicinity)
Text: FM230900 24006KT 5SM BR VCSH BKN030
Forecast period: 0900 to 1200 UTC 23 July 2014
Forecast type: FROM: standard forecast or significant change
Winds: from the WSW (240 degrees) at 7 MPH (6 knots; 3.1 m/s)
Visibility: 5 miles (8 km)
Ceiling: 3000 feet AGL
Clouds: broken clouds at 3000 feet AGL
Weather: BR VCSH  (mist, showers in vicinity)